createdAt,value
2022-08-24T00:00:39.913Z,23.81
2022-08-24T00:03:13.224Z,23.79
2022-08-24T00:05:45.325Z,23.75
2022-08-24T00:08:19.155Z,23.73
2022-08-24T00:10:51.078Z,23.71
2022-08-24T00:13:23.253Z,23.66
2022-08-24T00:15:55.409Z,23.64
2022-08-24T00:18:27.362Z,23.62
2022-08-24T00:20:59.436Z,23.56
2022-08-24T00:23:31.875Z,23.55
2022-08-24T00:26:05.435Z,23.54
2022-08-24T00:28:37.705Z,23.55
2022-08-24T00:31:10.397Z,23.53
2022-08-24T00:33:42.419Z,23.50
2022-08-24T00:36:14.664Z,23.46
2022-08-24T00:38:46.641Z,23.43
2022-08-24T00:41:19.033Z,23.39
2022-08-24T00:43:59.680Z,23.37
2022-08-24T00:46:52.224Z,23.36
2022-08-24T00:49:37.635Z,23.33
2022-08-24T00:52:13.689Z,23.31
2022-08-24T00:54:49.417Z,23.28
2022-08-24T00:57:24.149Z,23.26
2022-08-24T01:00:00.219Z,23.20
2022-08-24T01:02:34.595Z,23.16
2022-08-24T01:05:08.642Z,23.11
2022-08-24T01:07:41.236Z,23.09
2022-08-24T01:10:16.296Z,23.07
2022-08-24T01:12:59.795Z,23.07
2022-08-24T01:15:46.900Z,23.05
2022-08-24T01:18:41.138Z,23.03
2022-08-24T01:21:24.592Z,23.02
2022-08-24T01:24:01.905Z,22.99
2022-08-24T01:26:37.214Z,22.98
2022-08-24T01:29:12.733Z,22.96
2022-08-24T01:31:44.800Z,22.95
2022-08-24T01:34:17.605Z,22.94
2022-08-24T01:36:56.181Z,22.91
2022-08-24T01:39:31.207Z,22.88
2022-08-24T01:42:04.699Z,22.86
2022-08-24T01:44:39.531Z,22.86
2022-08-24T01:47:15.003Z,22.84
2022-08-24T01:49:48.771Z,22.83
2022-08-24T01:52:26.097Z,22.82
2022-08-24T01:54:58.006Z,22.81
2022-08-24T01:57:30.372Z,22.80
2022-08-24T02:00:04.482Z,22.77
2022-08-24T02:02:46.230Z,22.71
2022-08-24T02:05:18.738Z,22.66
2022-08-24T02:07:52.611Z,22.61
2022-08-24T02:10:28.461Z,22.60
2022-08-24T02:13:00.691Z,22.58
2022-08-24T02:15:40.330Z,22.55
2022-08-24T02:18:15.750Z,22.54
2022-08-24T02:20:49.027Z,22.55
2022-08-24T02:23:22.262Z,22.52
2022-08-24T02:25:55.237Z,22.50
2022-08-24T02:28:29.085Z,22.49
2022-08-24T02:31:02.309Z,22.46
2022-08-24T02:33:36.823Z,22.46
2022-08-24T02:36:25.290Z,22.43
2022-08-24T02:38:59.766Z,22.38
2022-08-24T02:41:32.271Z,22.35
2022-08-24T02:44:05.467Z,22.35
2022-08-24T02:46:38.792Z,22.32
2022-08-24T02:49:12.910Z,22.28
2022-08-24T02:51:47.370Z,22.29
2022-08-24T02:54:24.443Z,22.24
2022-08-24T02:56:57.519Z,22.21
2022-08-24T02:59:29.790Z,22.21
2022-08-24T03:02:02.005Z,22.21
2022-08-24T03:04:35.377Z,22.20
2022-08-24T03:07:08.973Z,22.18
2022-08-24T03:09:40.920Z,22.12
2022-08-24T03:12:12.892Z,22.10
2022-08-24T03:14:45.060Z,22.06
2022-08-24T03:17:17.262Z,22.01
2022-08-24T03:19:49.660Z,21.98
2022-08-24T03:22:21.938Z,21.97
2022-08-24T03:24:53.972Z,21.95
2022-08-24T03:27:27.014Z,21.92
2022-08-24T03:29:59.077Z,21.92
2022-08-24T03:32:32.187Z,21.87
2022-08-24T03:35:04.657Z,21.85
2022-08-24T03:37:37.467Z,21.84
2022-08-24T03:40:23.125Z,21.84
2022-08-24T03:42:59.863Z,21.84
2022-08-24T03:45:33.220Z,21.81
2022-08-24T03:48:05.569Z,21.81
2022-08-24T03:50:38.610Z,21.78
2022-08-24T03:53:10.594Z,21.76
2022-08-24T03:55:42.693Z,21.75
2022-08-24T03:58:14.674Z,21.76
2022-08-24T04:00:46.710Z,21.76
2022-08-24T04:03:19.323Z,21.77
2022-08-24T04:05:51.527Z,21.77
2022-08-24T04:08:24.392Z,21.78
2022-08-24T04:10:56.875Z,21.78
2022-08-24T04:13:32.064Z,21.77
2022-08-24T04:16:07.134Z,21.72
2022-08-24T04:18:39.946Z,21.72
2022-08-24T04:21:35.395Z,21.72
2022-08-24T04:24:10.463Z,21.69
2022-08-24T04:26:45.754Z,21.69
2022-08-24T04:29:21.556Z,21.68
2022-08-24T04:31:58.360Z,21.64
2022-08-24T04:34:31.485Z,21.60
2022-08-24T04:37:03.692Z,21.55
2022-08-24T04:39:35.757Z,21.53
2022-08-24T04:42:25.736Z,21.50
2022-08-24T04:44:58.022Z,21.48
2022-08-24T04:47:29.993Z,21.47
2022-08-24T04:50:01.881Z,21.45
2022-08-24T04:52:34.357Z,21.44
2022-08-24T04:55:07.650Z,21.45
2022-08-24T04:57:40.364Z,21.46
2022-08-24T05:00:13.636Z,21.49
2022-08-24T05:02:49.034Z,21.51
2022-08-24T05:05:20.990Z,21.53
2022-08-24T05:07:56.444Z,21.52
2022-08-24T05:10:30.901Z,21.51
2022-08-24T05:13:07.444Z,21.51
2022-08-24T05:15:45.500Z,21.52
2022-08-24T05:18:18.149Z,21.54
2022-08-24T05:20:50.447Z,21.56
2022-08-24T05:23:23.432Z,21.56
2022-08-24T05:26:07.112Z,21.57
2022-08-24T05:28:39.614Z,21.59
2022-08-24T05:31:16.005Z,21.61
2022-08-24T05:33:48.854Z,21.61
2022-08-24T05:36:30.037Z,21.64
2022-08-24T05:39:05.216Z,21.67
2022-08-24T05:41:44.220Z,21.70
2022-08-24T05:44:31.558Z,21.72
2022-08-24T05:47:06.246Z,21.75
2022-08-24T05:49:41.528Z,21.76
2022-08-24T05:52:15.190Z,21.78
2022-08-24T05:54:53.947Z,21.79
2022-08-24T05:57:27.543Z,21.78
2022-08-24T06:00:12.219Z,21.78
2022-08-24T06:02:54.163Z,21.75
2022-08-24T06:05:27.677Z,21.72
2022-08-24T06:08:01.104Z,21.70
2022-08-24T06:10:36.684Z,21.70
2022-08-24T06:13:11.283Z,21.69
2022-08-24T06:15:50.982Z,21.70
2022-08-24T06:18:31.994Z,21.72
2022-08-24T06:21:13.344Z,21.74
2022-08-24T06:23:49.006Z,21.77
2022-08-24T06:26:40.462Z,21.81
2022-08-24T06:29:12.601Z,21.86
2022-08-24T06:31:54.226Z,21.89
2022-08-24T06:34:28.032Z,21.93
2022-08-24T06:36:59.948Z,21.98
2022-08-24T06:39:32.114Z,22.03
2022-08-24T06:42:05.801Z,22.08
2022-08-24T06:44:38.486Z,22.14
2022-08-24T06:47:22.187Z,22.20
2022-08-24T06:50:00.433Z,22.25
2022-08-24T06:52:35.694Z,22.29
2022-08-24T06:55:08.197Z,22.32
2022-08-24T06:57:40.205Z,22.37
2022-08-24T07:00:12.969Z,22.43
2022-08-24T07:02:45.619Z,22.48
2022-08-24T07:05:18.242Z,22.53
2022-08-24T07:08:09.055Z,22.55
2022-08-24T07:10:42.724Z,22.58
2022-08-24T07:13:15.036Z,22.65
2022-08-24T07:15:47.253Z,22.73
2022-08-24T07:18:20.316Z,22.81
2022-08-24T07:20:53.981Z,22.88
2022-08-24T07:23:41.490Z,22.92
2022-08-24T07:26:23.001Z,22.98
2022-08-24T07:29:07.073Z,23.01
2022-08-24T07:31:46.040Z,23.06
2022-08-24T07:34:32.879Z,23.13
2022-08-24T07:37:05.635Z,23.19
2022-08-24T07:39:40.595Z,23.29
2022-08-24T07:42:18.840Z,23.52
2022-08-24T07:44:55.341Z,23.73
2022-08-24T07:47:38.548Z,23.79
2022-08-24T07:50:20.832Z,23.85
2022-08-24T07:52:52.897Z,23.87
2022-08-24T07:55:25.399Z,23.90
2022-08-24T07:57:59.525Z,23.94
2022-08-24T08:00:31.453Z,23.97
2022-08-24T08:03:07.247Z,24.03
2022-08-24T08:05:41.518Z,24.07
2022-08-24T08:08:13.991Z,24.12
2022-08-24T08:10:46.718Z,24.18
2022-08-24T08:13:19.340Z,24.22
2022-08-24T08:15:54.654Z,24.28
2022-08-24T08:18:30.394Z,24.33
2022-08-24T08:21:05.671Z,24.38
2022-08-24T08:23:57.200Z,24.46
2022-08-24T08:26:36.030Z,24.53
2022-08-24T08:29:12.963Z,24.61
2022-08-24T08:31:46.788Z,24.68
2022-08-24T08:34:19.450Z,24.75
2022-08-24T08:36:52.735Z,24.81
2022-08-24T08:39:25.925Z,24.86
2022-08-24T08:42:24.001Z,24.92
2022-08-24T08:45:14.408Z,25.01
2022-08-24T08:51:19.176Z,25.15
2022-08-24T08:54:18.915Z,25.22
2022-08-24T08:57:36.456Z,25.28
2022-08-24T09:00:25.033Z,25.35
2022-08-24T09:03:14.168Z,25.40
2022-08-24T09:06:15.547Z,25.46
2022-08-24T09:09:15.451Z,25.51
2022-08-24T09:12:07.904Z,25.55
2022-08-24T09:14:48.126Z,25.61
2022-08-24T09:17:47.738Z,25.66
2022-08-24T09:20:24.075Z,25.73
2022-08-24T09:23:10.623Z,25.77
2022-08-24T09:25:47.852Z,25.79
2022-08-24T09:28:39.271Z,25.82
2022-08-24T09:31:33.809Z,25.87
2022-08-24T09:34:51.445Z,25.88
2022-08-24T09:37:50.178Z,25.93
2022-08-24T09:40:29.490Z,25.97
2022-08-24T09:43:19.425Z,25.99
2022-08-24T09:45:51.356Z,26.04
2022-08-24T09:48:39.413Z,26.08
2022-08-24T09:51:36.928Z,26.13
2022-08-24T09:54:09.006Z,26.19
2022-08-24T09:57:25.224Z,26.24
2022-08-24T10:00:13.936Z,26.25
2022-08-24T10:03:25.315Z,26.26
2022-08-24T10:06:34.251Z,26.27
2022-08-24T10:09:24.321Z,26.29
2022-08-24T10:12:25.231Z,26.31
2022-08-24T10:15:25.004Z,26.33
2022-08-24T10:18:15.358Z,26.37
2022-08-24T10:21:22.761Z,26.40
2022-08-24T10:24:14.812Z,26.46
2022-08-24T10:27:04.493Z,26.49
2022-08-24T10:29:42.762Z,26.53
2022-08-24T10:32:48.721Z,26.58
2022-08-24T10:35:27.548Z,26.62
2022-08-24T10:38:42.968Z,26.62
2022-08-24T10:41:46.117Z,26.66
2022-08-24T10:44:44.455Z,26.70
2022-08-24T10:47:23.566Z,26.74
2022-08-24T10:50:08.832Z,26.79
2022-08-24T10:52:48.066Z,26.84
2022-08-24T10:55:27.119Z,26.88
2022-08-24T10:58:10.414Z,26.94
2022-08-24T11:00:43.191Z,27.00
2022-08-24T11:03:21.362Z,27.07
2022-08-24T11:06:14.806Z,27.13
2022-08-24T11:08:56.523Z,27.19
2022-08-24T11:11:52.308Z,27.26
2022-08-24T11:14:29.399Z,27.31
2022-08-24T11:17:19.201Z,27.38
2022-08-24T11:19:51.748Z,27.48
2022-08-24T11:22:32.685Z,27.59
2022-08-24T11:25:11.376Z,27.74
2022-08-24T11:27:49.573Z,27.95
2022-08-24T11:30:23.175Z,28.22
2022-08-24T11:33:03.604Z,28.71
2022-08-24T11:35:40.016Z,29.29
2022-08-24T11:38:19.200Z,29.94
2022-08-24T11:40:54.862Z,30.67
2022-08-24T11:44:02.203Z,31.46
2022-08-24T11:47:14.975Z,32.34
2022-08-24T11:49:55.938Z,33.07
2022-08-24T11:52:28.148Z,33.65
2022-08-24T11:55:24.458Z,34.21
2022-08-24T11:58:02.627Z,34.88
2022-08-24T12:00:48.972Z,35.51
2022-08-24T12:03:33.698Z,36.17
2022-08-24T12:06:41.502Z,36.96
2022-08-24T12:09:25.264Z,37.83
2022-08-24T12:12:04.336Z,38.43
2022-08-24T12:14:42.462Z,38.91
2022-08-24T12:17:20.379Z,39.27
2022-08-24T12:19:59.883Z,39.51
2022-08-24T12:22:32.694Z,39.79
2022-08-24T12:25:25.209Z,40.05
2022-08-24T12:27:58.522Z,40.49
2022-08-24T12:30:30.919Z,40.76
2022-08-24T12:33:09.838Z,40.91
2022-08-24T12:35:46.189Z,40.95
2022-08-24T12:38:30.183Z,41.01
2022-08-24T12:41:14.691Z,41.19
2022-08-24T12:43:58.920Z,41.37
2022-08-24T12:46:31.662Z,41.55
2022-08-24T12:49:27.134Z,41.70
2022-08-24T12:51:58.944Z,41.73
2022-08-24T12:54:53.422Z,41.83
2022-08-24T12:57:54.065Z,41.98
2022-08-24T13:00:29.173Z,41.96
2022-08-24T13:03:04.834Z,41.99
2022-08-24T13:05:49.061Z,42.19
2022-08-24T13:08:53.634Z,42.36
2022-08-24T13:11:34.425Z,42.42
2022-08-24T13:14:12.775Z,42.41
2022-08-24T13:16:47.724Z,42.46
2022-08-24T13:19:28.888Z,42.46
2022-08-24T13:22:00.868Z,42.40
2022-08-24T13:24:33.038Z,42.39
2022-08-24T13:27:15.439Z,42.44
2022-08-24T13:30:08.653Z,42.51
2022-08-24T13:32:46.604Z,42.61
2022-08-24T13:35:30.648Z,42.73
2022-08-24T13:38:23.992Z,42.71
2022-08-24T13:41:03.052Z,42.62
2022-08-24T13:44:02.048Z,42.36
2022-08-24T13:47:05.319Z,42.25
2022-08-24T13:50:02.120Z,42.51
2022-08-24T13:52:43.086Z,42.81
2022-08-24T13:55:51.174Z,42.89
2022-08-24T13:58:45.408Z,42.90
2022-08-24T14:01:34.334Z,42.73
2022-08-24T14:04:24.824Z,42.66
2022-08-24T14:07:18.654Z,42.59
2022-08-24T14:09:50.919Z,42.71
2022-08-24T14:12:34.772Z,42.85
2022-08-24T14:15:25.248Z,42.65
2022-08-24T14:18:14.029Z,42.39
2022-08-24T14:21:09.370Z,42.10
2022-08-24T14:23:47.802Z,41.77
2022-08-24T14:26:38.294Z,41.44
2022-08-24T14:29:19.335Z,40.73
2022-08-24T14:32:11.771Z,39.74
2022-08-24T14:34:50.845Z,38.39
2022-08-24T14:37:29.640Z,37.31
2022-08-24T14:40:27.998Z,36.40
2022-08-24T14:43:15.328Z,35.71
2022-08-24T14:46:09.170Z,35.22
2022-08-24T14:49:07.446Z,34.79
2022-08-24T14:51:54.823Z,34.37
2022-08-24T14:54:41.626Z,33.99
2022-08-24T14:57:17.332Z,33.65
2022-08-24T15:00:12.931Z,33.36
2022-08-24T15:02:51.049Z,33.16
2022-08-24T15:05:36.969Z,32.98
2022-08-24T15:08:28.641Z,32.75
2022-08-24T15:11:09.058Z,32.55
2022-08-24T15:14:02.139Z,32.39
2022-08-24T15:16:54.305Z,32.26
2022-08-24T15:19:43.873Z,32.09
2022-08-24T15:22:45.792Z,31.87
2022-08-24T15:25:24.264Z,31.73
2022-08-24T15:28:08.350Z,31.64
2022-08-24T15:30:42.139Z,31.58
2022-08-24T15:33:19.497Z,31.55
2022-08-24T15:36:14.436Z,31.54
2022-08-24T15:38:46.619Z,31.50
2022-08-24T15:41:24.652Z,31.47
2022-08-24T15:43:56.683Z,31.41
2022-08-24T15:46:33.180Z,31.33
2022-08-24T15:49:13.118Z,31.29
2022-08-24T15:51:58.202Z,31.18
2022-08-24T15:54:34.973Z,31.10
2022-08-24T15:57:42.869Z,31.01
2022-08-24T16:00:43.776Z,30.95
2022-08-24T16:03:48.010Z,30.94
2022-08-24T16:06:23.114Z,30.88
2022-08-24T16:08:58.642Z,30.82
2022-08-24T16:11:35.028Z,30.73
2022-08-24T16:14:13.758Z,30.70
2022-08-24T16:16:46.346Z,30.65
2022-08-24T16:19:23.116Z,30.64
2022-08-24T16:22:07.466Z,30.59
2022-08-24T16:24:41.717Z,30.55
2022-08-24T16:27:17.052Z,30.53
2022-08-24T16:29:53.705Z,30.51
2022-08-24T16:32:44.444Z,30.50
2022-08-24T16:35:24.957Z,30.45
2022-08-24T16:37:57.574Z,30.42
2022-08-24T16:40:33.140Z,30.36
2022-08-24T16:43:05.288Z,30.31
2022-08-24T16:45:37.291Z,30.25
2022-08-24T16:48:09.682Z,30.20
2022-08-24T16:50:41.692Z,30.15
2022-08-24T16:53:13.784Z,30.10
2022-08-24T16:55:48.069Z,30.04
2022-08-24T16:58:23.839Z,29.95
2022-08-24T17:00:55.843Z,29.87
2022-08-24T17:03:28.668Z,29.81
2022-08-24T17:06:00.885Z,29.77
2022-08-24T17:08:34.104Z,29.75
2022-08-24T17:11:06.478Z,29.71
2022-08-24T17:13:49.546Z,29.69
2022-08-24T17:16:22.918Z,29.62
2022-08-24T17:18:58.700Z,29.57
2022-08-24T17:21:31.080Z,29.51
2022-08-24T17:24:03.298Z,29.46
2022-08-24T17:26:36.336Z,29.41
2022-08-24T17:29:11.921Z,29.39
2022-08-24T17:31:49.923Z,29.37
2022-08-24T17:34:23.199Z,29.35
2022-08-24T17:36:56.058Z,29.34
2022-08-24T17:39:28.810Z,29.34
2022-08-24T17:42:01.965Z,29.34
2022-08-24T17:44:34.315Z,29.31
2022-08-24T17:47:07.317Z,29.29
2022-08-24T17:49:39.575Z,29.27
2022-08-24T17:52:11.706Z,29.23
2022-08-24T17:54:43.694Z,29.19
2022-08-24T17:57:15.888Z,29.14
2022-08-24T17:59:50.645Z,29.07
2022-08-24T18:02:23.150Z,29.02
2022-08-24T18:04:55.245Z,29.01
2022-08-24T18:07:49.610Z,28.97
2022-08-24T18:10:24.689Z,28.93
2022-08-24T18:12:58.118Z,28.88
2022-08-24T18:15:34.761Z,28.86
2022-08-24T18:18:09.117Z,28.82
2022-08-24T18:20:41.929Z,28.80
2022-08-24T18:23:14.921Z,28.75
2022-08-24T18:25:53.814Z,28.73
2022-08-24T18:28:26.369Z,28.69
2022-08-24T18:30:58.993Z,28.66
2022-08-24T18:33:31.140Z,28.63
2022-08-24T18:36:03.449Z,28.61
2022-08-24T18:38:35.639Z,28.57
2022-08-24T18:41:07.718Z,28.53
2022-08-24T18:43:40.122Z,28.47
2022-08-24T18:46:12.427Z,28.43
2022-08-24T18:48:44.365Z,28.41
2022-08-24T18:51:19.060Z,28.37
2022-08-24T18:53:54.679Z,28.35
2022-08-24T18:56:26.623Z,28.33
2022-08-24T18:58:58.511Z,28.29
2022-08-24T19:01:31.109Z,28.27
2022-08-24T19:04:10.807Z,28.22
2022-08-24T19:06:45.861Z,28.19
2022-08-24T19:09:18.400Z,28.17
2022-08-24T19:11:50.486Z,28.16
2022-08-24T19:14:22.544Z,28.07
2022-08-24T19:16:55.408Z,28.03
2022-08-24T19:19:27.422Z,27.96
2022-08-24T19:22:00.090Z,27.89
2022-08-24T19:24:32.681Z,27.82
2022-08-24T19:27:06.680Z,27.75
2022-08-24T19:29:55.157Z,27.68
2022-08-24T19:32:29.075Z,27.62
2022-08-24T19:35:01.073Z,27.57
2022-08-24T19:37:33.005Z,27.53
2022-08-24T19:40:06.051Z,27.46
2022-08-24T19:42:38.545Z,27.37
2022-08-24T19:45:41.455Z,27.31
2022-08-24T19:48:13.316Z,27.25
2022-08-24T19:50:45.266Z,27.19
2022-08-24T19:53:17.253Z,27.14
2022-08-24T19:55:50.379Z,27.07
2022-08-24T19:58:30.004Z,27.01
2022-08-24T20:01:15.126Z,26.94
2022-08-24T20:06:33.345Z,26.79
2022-08-24T20:09:07.398Z,26.75
2022-08-24T20:11:39.575Z,26.71
2022-08-24T20:14:11.835Z,26.65
2022-08-24T20:16:44.018Z,26.61
2022-08-24T20:19:16.223Z,26.60
2022-08-24T20:21:48.241Z,26.55
2022-08-24T20:24:20.566Z,26.52
2022-08-24T20:26:52.755Z,26.48
2022-08-24T20:29:24.853Z,26.44
2022-08-24T20:32:01.318Z,26.44
2022-08-24T20:34:33.662Z,26.40
2022-08-24T20:37:05.870Z,26.37
2022-08-24T20:39:38.596Z,26.33
2022-08-24T20:42:15.630Z,26.29
2022-08-24T20:44:50.361Z,26.28
2022-08-24T20:47:22.814Z,26.24
2022-08-24T20:49:55.031Z,26.19
2022-08-24T20:52:27.010Z,26.18
2022-08-24T20:54:59.215Z,26.11
2022-08-24T20:57:31.189Z,26.08
2022-08-24T21:00:06.258Z,26.07
2022-08-24T21:02:38.155Z,26.04
2022-08-24T21:05:11.113Z,25.99
2022-08-24T21:07:49.490Z,25.97
2022-08-24T21:10:26.501Z,25.93
2022-08-24T21:13:00.222Z,25.90
2022-08-24T21:15:33.282Z,25.87
2022-08-24T21:18:06.926Z,25.82
2022-08-24T21:20:39.405Z,25.80
2022-08-24T21:23:16.617Z,25.77
2022-08-24T21:25:48.706Z,25.71
2022-08-24T21:28:22.848Z,25.67
2022-08-24T21:30:55.007Z,25.62
2022-08-24T21:33:45.626Z,25.58
2022-08-24T21:36:17.703Z,25.53
2022-08-24T21:38:52.276Z,25.51
2022-08-24T21:41:29.458Z,25.47
2022-08-24T21:44:01.492Z,25.42
2022-08-24T21:46:36.776Z,25.37
2022-08-24T21:49:12.106Z,25.33
2022-08-24T21:51:44.475Z,25.28
2022-08-24T21:54:16.472Z,25.24
2022-08-24T21:56:48.518Z,25.21
2022-08-24T21:59:20.543Z,25.17
2022-08-24T22:01:52.985Z,25.13
2022-08-24T22:04:25.043Z,25.09
2022-08-24T22:06:57.345Z,25.07
2022-08-24T22:09:29.439Z,25.06
2022-08-24T22:12:01.426Z,25.06
2022-08-24T22:14:33.894Z,25.05
2022-08-24T22:17:05.760Z,25.04
2022-08-24T22:19:38.097Z,25.01
2022-08-24T22:22:10.366Z,25.00
2022-08-24T22:24:42.554Z,24.97
2022-08-24T22:27:14.513Z,24.94
2022-08-24T22:29:50.631Z,24.91
2022-08-24T22:32:25.158Z,24.85
2022-08-24T22:34:57.502Z,24.81
2022-08-24T22:37:29.422Z,24.77
2022-08-24T22:40:02.208Z,24.72
2022-08-24T22:42:34.446Z,24.68
2022-08-24T22:45:07.767Z,24.66
2022-08-24T22:47:39.845Z,24.65
2022-08-24T22:50:11.809Z,24.61
2022-08-24T22:52:43.784Z,24.56
2022-08-24T22:55:15.849Z,24.52
2022-08-24T22:57:51.408Z,24.46
2022-08-24T23:00:23.643Z,24.40
2022-08-24T23:02:55.603Z,24.37
2022-08-24T23:05:27.822Z,24.36
2022-08-24T23:07:59.686Z,24.33
2022-08-24T23:10:31.625Z,24.31
2022-08-24T23:13:03.866Z,24.31
2022-08-24T23:15:35.964Z,24.29
2022-08-24T23:18:27.989Z,24.26
2022-08-24T23:20:59.995Z,24.23
2022-08-24T23:23:31.839Z,24.20
2022-08-24T23:26:05.027Z,24.19
2022-08-24T23:28:36.996Z,24.16
2022-08-24T23:31:11.903Z,24.12
2022-08-24T23:33:44.255Z,24.10
2022-08-24T23:36:18.417Z,24.08
2022-08-24T23:38:54.677Z,24.05
2022-08-24T23:41:29.768Z,24.01
2022-08-24T23:44:04.392Z,23.98
2022-08-24T23:46:36.981Z,23.95
2022-08-24T23:49:09.464Z,23.92
2022-08-24T23:51:41.792Z,23.89
2022-08-24T23:54:13.873Z,23.85
2022-08-24T23:56:47.130Z,23.85
2022-08-24T23:59:25.072Z,23.82
